Terminal Aerodrome Forecast
Issued by NWS Portland, OR

Home | Current Version | Previous Version | Text Only | Print | Product List | Glossary On
Versions: 1 2 3 4 5 6 7 8 9 10 11 12 13 14 15 16 17 18 19 20 21 22 23 24 25
000
FTUS46 KPQR 291219 AAA
TAFHIO
TAF AMD
KHIO 291219Z 2912/3012 28004KT P6SM OVC040
     FM292000 32006KT P6SM SCT012 BKN025
     FM300100 32008KT P6SM BKN070
     FM300700 00000KT P6SM OVC050=

USA.gov is the U.S. government's official web portal to all federal, state and local government web resources and services.